Time;durP1;ratioP1;P1;durP2;ratioP2;P2;SDS_P1;SDS_P2;PMS_P1;PMS_P2;Temp;Humidity;BMP_temperature;BMP_pressure;BME280_temperature;BME280_humidity;BME280_pressure;Samples;Min_cycle;Max_cycle;Signal;HPM_P1;HPM_P2
2023/01/07 00:02:11;;;;;;;0.95;0.68;;;;;;;12.85;67.42;100787.78;10299871;28;20069;-72
2023/01/07 00:07:12;;;;;;;1.58;0.52;;;;;;;12.83;67.25;100767.41;10299087;28;20142;-73
2023/01/07 00:12:14;;;;;;;2.10;0.70;;;;;;;12.65;67.58;100765.84;10297665;28;20705;-68
2023/01/07 00:17:15;;;;;;;2.60;0.60;;;;;;;12.59;67.66;100763.84;10298523;28;20047;-73
2023/01/07 00:22:16;;;;;;;1.30;0.50;;;;;;;12.60;67.74;100780.88;10309859;28;20650;-71
2023/01/07 00:27:18;;;;;;;2.08;1.10;;;;;;;12.60;67.64;100772.78;10305409;28;20548;-73
2023/01/07 00:32:20;;;;;;;0.47;0.30;;;;;;;12.57;67.96;100767.75;10303446;28;20058;-73
2023/01/07 00:42:53;;;;;;;1.10;0.50;;;;;;;12.54;67.57;100768.97;10312502;28;20070;-73
2023/01/07 00:47:56;;;;;;;3.50;0.70;;;;;;;12.49;67.78;100766.78;10307316;28;20062;-71
2023/01/07 00:52:58;;;;;;;0.80;0.40;;;;;;;12.43;67.53;100766.66;10293504;28;20074;-72
2023/01/07 00:57:59;;;;;;;0.95;0.50;;;;;;;12.35;67.81;100758.63;10300062;28;20130;-71
2023/01/07 01:03:01;;;;;;;1.15;0.52;;;;;;;12.44;67.93;100752.16;10308577;28;20127;-72
2023/01/07 01:08:02;;;;;;;1.63;0.68;;;;;;;12.44;67.45;100744.94;10308278;28;20129;-72
2023/01/07 01:13:03;;;;;;;3.92;0.60;;;;;;;12.41;67.33;100742.56;10303200;28;20150;-70
2023/01/07 01:18:05;;;;;;;2.15;0.70;;;;;;;12.47;67.60;100741.84;10305427;28;20078;-72
2023/01/07 01:23:07;;;;;;;1.35;0.50;;;;;;;12.34;67.61;100736.19;10301104;28;20078;-68
2023/01/07 01:28:08;;;;;;;1.75;0.52;;;;;;;12.37;67.30;100737.72;10298474;28;20067;-71
2023/01/07 01:33:09;;;;;;;1.27;0.75;;;;;;;12.31;67.38;100736.56;10298900;28;20078;-72
2023/01/07 01:38:11;;;;;;;2.20;0.80;;;;;;;12.21;68.13;100742.19;10305576;28;20141;-72
2023/01/07 01:43:33;;;;;;;1.25;0.60;;;;;;;12.28;67.86;100729.69;10301882;28;20216;-72
2023/01/07 01:48:38;;;;;;;1.10;0.60;;;;;;;12.21;67.86;100741.34;10299074;28;20074;-71
2023/01/07 01:53:40;;;;;;;0.80;0.57;;;;;;;12.23;67.60;100726.69;10298338;28;20089;-73
2023/01/07 01:58:46;;;;;;;3.83;1.63;;;;;;;12.22;68.02;100716.06;10286181;28;20074;-70
2023/01/07 02:03:48;;;;;;;1.25;0.60;;;;;;;12.30;67.41;100707.94;10301296;28;20479;-71
2023/01/07 02:08:49;;;;;;;2.05;0.52;;;;;;;12.36;67.35;100709.94;10298644;28;20105;-71
2023/01/07 02:14:08;;;;;;;1.30;0.63;;;;;;;12.31;67.31;100709.63;10300234;28;20054;-72
2023/01/07 02:19:30;;;;;;;2.05;0.50;;;;;;;12.34;67.50;100695.75;10298628;28;20134;-72
2023/01/07 02:25:03;;;;;;;0.80;0.50;;;;;;;12.43;67.02;100693.88;10302812;28;20129;-72
2023/01/07 02:30:21;;;;;;;1.50;0.47;;;;;;;12.46;66.85;100697.06;10300609;28;20445;-72
2023/01/07 02:35:35;;;;;;;1.92;0.50;;;;;;;12.53;66.68;100693.63;10293410;28;20050;-71
2023/01/07 02:40:56;;;;;;;0.88;0.60;;;;;;;12.45;67.19;100692.66;10292741;28;20051;-70
2023/01/07 02:46:20;;;;;;;1.08;0.60;;;;;;;12.44;67.37;100682.91;10278641;28;20134;-70
2023/01/07 02:51:33;;;;;;;1.60;0.50;;;;;;;12.53;67.07;100690.94;10295710;28;20563;-70
2023/01/07 02:56:41;;;;;;;3.17;0.50;;;;;;;12.59;67.00;100684.81;10299245;28;20132;-71
2023/01/07 03:01:58;;;;;;;2.60;1.42;;;;;;;12.73;66.36;100672.41;10298806;28;20122;-70
2023/01/07 03:07:21;;;;;;;1.53;0.70;;;;;;;12.80;66.44;100667.97;10298822;28;20130;-72
2023/01/07 03:12:28;;;;;;;0.95;0.55;;;;;;;12.80;66.49;100671.47;10285638;28;20070;-71
2023/01/07 03:17:44;;;;;;;1.70;0.60;;;;;;;12.88;66.55;100659.78;10296678;28;20085;-71
2023/01/07 03:22:46;;;;;;;1.48;0.60;;;;;;;12.90;65.98;100653.16;10300735;28;20042;-70
2023/01/07 03:27:50;;;;;;;0.95;0.50;;;;;;;12.90;66.13;100653.16;10290740;28;20062;-71
2023/01/07 03:33:13;;;;;;;1.05;0.50;;;;;;;12.80;66.33;100659.88;10299437;28;20077;-70
2023/01/07 03:38:17;;;;;;;1.77;0.60;;;;;;;12.81;66.22;100653.44;10296721;28;20066;-70
2023/01/07 03:43:21;;;;;;;1.50;0.63;;;;;;;12.79;66.41;100650.91;10294699;28;20125;-69
2023/01/07 03:48:22;;;;;;;6.38;1.20;;;;;;;12.81;66.17;100650.72;10300116;28;20089;-72
2023/01/07 03:53:23;;;;;;;2.13;0.50;;;;;;;12.63;66.54;100648.38;10301573;28;20038;-70
2023/01/07 03:58:25;;;;;;;1.33;0.65;;;;;;;12.58;66.63;100645.38;10303029;28;20141;-69
2023/01/07 04:03:26;;;;;;;1.52;0.52;;;;;;;12.49;66.68;100633.81;10302799;28;20644;-73
2023/01/07 04:08:27;;;;;;;2.67;1.25;;;;;;;12.46;66.62;100626.94;10303595;28;20604;-70
2023/01/07 04:13:29;;;;;;;2.83;0.77;;;;;;;12.37;67.13;100632.59;10304050;28;20073;-71
2023/01/07 04:18:30;;;;;;;4.32;1.00;;;;;;;12.33;67.02;100625.88;10304272;28;20140;-73
2023/01/07 04:23:31;;;;;;;1.70;1.08;;;;;;;12.34;66.79;100614.91;10306975;28;20134;-71
2023/01/07 04:28:33;;;;;;;2.10;0.88;;;;;;;12.25;66.71;100613.31;10303382;28;20066;-72
2023/01/07 04:33:34;;;;;;;2.13;0.90;;;;;;;12.27;66.53;100597.78;10301830;28;20057;-72
2023/01/07 04:38:36;;;;;;;3.15;1.20;;;;;;;12.30;66.21;100600.97;10305492;28;20050;-70
2023/01/07 04:43:37;;;;;;;2.20;1.10;;;;;;;12.32;66.51;100599.94;10303781;28;20129;-72
2023/01/07 04:48:38;;;;;;;2.75;1.35;;;;;;;12.37;66.37;100598.38;10305977;28;20081;-72
2023/01/07 04:53:40;;;;;;;4.97;1.33;;;;;;;12.24;66.13;100588.22;10307859;28;21058;-71
2023/01/07 04:58:42;;;;;;;2.58;1.55;;;;;;;12.30;65.96;100587.50;10300321;28;20146;-73
2023/01/07 05:03:44;;;;;;;1.92;1.42;;;;;;;12.32;66.14;100576.50;10302789;28;20137;-72
2023/01/07 05:08:45;;;;;;;3.50;1.20;;;;;;;12.33;66.02;100564.72;10302878;28;20129;-70
2023/01/07 05:13:48;;;;;;;2.88;1.23;;;;;;;12.34;65.65;100557.44;10302869;28;20048;-72
2023/01/07 05:18:49;;;;;;;2.85;1.48;;;;;;;12.44;65.64;100558.03;10303028;28;20116;-70
2023/01/07 05:23:51;;;;;;;4.30;1.88;;;;;;;12.47;65.48;100558.50;10300293;28;20074;-69
2023/01/07 05:28:52;;;;;;;2.88;1.77;;;;;;;12.42;65.87;100552.84;10303544;28;20138;-71
2023/01/07 05:33:53;;;;;;;2.70;1.73;;;;;;;12.40;65.31;100560.28;10300056;28;20050;-70
2023/01/07 05:38:55;;;;;;;4.55;1.60;;;;;;;12.40;65.74;100557.59;10300649;28;20134;-69
2023/01/07 05:43:56;;;;;;;2.30;1.80;;;;;;;12.41;65.21;100545.75;10302230;28;20078;-70
2023/01/07 05:48:57;;;;;;;2.55;1.40;;;;;;;12.39;65.64;100536.19;10299644;28;20067;-71
2023/01/07 05:53:59;;;;;;;6.22;1.40;;;;;;;12.36;65.43;100523.94;10293338;28;20458;-71
2023/01/07 05:59:00;;;;;;;5.07;2.20;;;;;;;12.37;65.32;100533.66;10301023;28;20100;-72
2023/01/07 06:04:02;;;;;;;4.30;1.60;;;;;;;12.28;65.50;100532.06;10299921;28;20083;-71
2023/01/07 06:09:03;;;;;;;2.63;1.52;;;;;;;12.26;65.99;100517.94;10284321;28;20138;-69
2023/01/07 06:14:04;;;;;;;3.90;1.70;;;;;;;12.23;66.06;100524.53;10299229;28;20070;-72
2023/01/07 06:19:06;;;;;;;3.78;1.80;;;;;;;12.16;65.85;100522.75;10295834;28;20562;-71
2023/01/07 06:24:07;;;;;;;2.47;1.52;;;;;;;12.20;65.84;100510.59;10302540;28;20113;-70
2023/01/07 06:29:09;;;;;;;3.63;1.67;;;;;;;12.20;65.88;100506.03;10299110;28;20050;-70
2023/01/07 06:34:10;;;;;;;4.88;1.48;;;;;;;12.26;65.75;100493.69;10303372;28;20055;-71
2023/01/07 06:39:12;;;;;;;3.33;1.88;;;;;;;12.34;65.52;100487.38;10302132;28;20078;-72
2023/01/07 06:44:13;;;;;;;3.97;1.75;;;;;;;12.41;65.58;100486.44;10289799;28;20142;-70
2023/01/07 06:49:15;;;;;;;3.40;2.10;;;;;;;12.48;65.28;100484.69;10303600;28;20096;-72
2023/01/07 06:54:16;;;;;;;2.85;2.00;;;;;;;12.33;66.09;100480.31;10307896;28;20077;-71
2023/01/07 06:59:17;;;;;;;6.95;2.72;;;;;;;12.23;66.01;100473.31;10305055;28;20462;-70
2023/01/07 07:04:19;;;;;;;3.80;1.90;;;;;;;12.23;66.39;100467.09;10282006;28;20046;-71
2023/01/07 07:09:20;;;;;;;4.85;2.28;;;;;;;12.28;65.78;100473.63;10296171;28;20565;-72
2023/01/07 07:14:21;;;;;;;4.00;2.40;;;;;;;12.24;65.84;100461.53;10299266;28;20051;-71
2023/01/07 07:19:23;;;;;;;4.05;2.53;;;;;;;12.24;66.01;100456.16;10300403;28;20046;-69
2023/01/07 07:24:24;;;;;;;6.53;2.83;;;;;;;12.19;65.96;100450.47;10297067;28;20149;-66
2023/01/07 07:29:25;;;;;;;10.88;4.50;;;;;;;12.31;65.73;100456.25;10301636;28;20078;-66
2023/01/07 07:34:27;;;;;;;4.50;2.70;;;;;;;12.32;66.12;100449.81;10298265;28;20104;-66
2023/01/07 07:39:28;;;;;;;5.78;2.80;;;;;;;12.37;65.85;100446.56;10300463;28;20138;-66
2023/01/07 07:44:30;;;;;;;6.55;2.60;;;;;;;12.37;66.29;100442.00;10298648;28;20116;-67
2023/01/07 07:49:31;;;;;;;3.88;3.00;;;;;;;12.34;66.26;100447.75;10298892;28;20148;-67
2023/01/07 07:54:33;;;;;;;5.00;2.95;;;;;;;12.29;66.16;100439.41;10305392;28;20074;-66
2023/01/07 07:59:35;;;;;;;4.95;2.88;;;;;;;12.34;66.08;100433.47;10308391;28;20129;-66
2023/01/07 08:04:36;;;;;;;4.90;3.42;;;;;;;12.38;66.07;100434.75;10305811;28;20077;-66
2023/01/07 08:09:38;;;;;;;7.13;3.78;;;;;;;12.27;66.46;100431.50;10304584;28;20547;-66
2023/01/07 08:14:39;;;;;;;5.97;4.13;;;;;;;12.19;66.47;100431.59;10303218;28;20148;-67
2023/01/07 08:19:43;;;;;;;4.78;3.17;;;;;;;12.02;67.28;100419.31;10300317;28;20085;-66
2023/01/07 08:24:44;;;;;;;5.13;3.65;;;;;;;12.12;66.76;100408.25;10305542;28;20644;-67
2023/01/07 08:29:46;;;;;;;4.82;3.53;;;;;;;12.30;66.51;100404.19;10293912;28;20054;-66
2023/01/07 08:34:47;;;;;;;7.93;4.20;;;;;;;12.41;66.23;100400.19;10298839;28;20038;-67
2023/01/07 08:39:49;;;;;;;8.68;4.30;;;;;;;12.50;66.44;100396.38;10310725;28;20189;-69
2023/01/07 08:44:50;;;;;;;7.30;4.55;;;;;;;12.59;66.05;100391.69;10304096;28;20134;-68
2023/01/07 08:49:51;;;;;;;5.43;3.70;;;;;;;12.76;66.33;100386.94;10310226;28;20089;-69
2023/01/07 08:54:53;;;;;;;10.13;4.47;;;;;;;12.87;65.74;100380.19;10306162;28;20053;-69
2023/01/07 08:59:54;;;;;;;6.60;4.10;;;;;;;12.94;66.05;100375.72;10303423;28;20070;-68
2023/01/07 09:04:55;;;;;;;5.28;3.85;;;;;;;12.97;65.71;100374.50;10303011;28;20431;-69
2023/01/07 09:09:57;;;;;;;7.65;3.38;;;;;;;12.98;65.69;100366.22;10305883;28;20066;-69
2023/01/07 09:14:58;;;;;;;5.88;3.60;;;;;;;12.98;65.57;100363.53;10297126;28;20506;-69
2023/01/07 09:20:02;;;;;;;5.80;2.90;;;;;;;12.97;65.86;100361.00;10301445;28;20046;-70
2023/01/07 09:25:04;;;;;;;3.08;1.63;;;;;;;12.85;65.55;100350.72;10314707;28;20120;-68
2023/01/07 09:30:08;;;;;;;1.92;0.88;;;;;;;12.74;65.82;100353.06;10303175;28;20054;-68
2023/01/07 09:35:10;;;;;;;0.80;0.30;;;;;;;12.75;64.60;100344.78;10304479;28;20133;-67
2023/01/07 09:40:22;;;;;;;2.90;0.30;;;;;;;12.83;64.32;100333.06;10299387;28;20086;-69
2023/01/07 09:45:39;;;;;;;0.80;0.45;;;;;;;12.92;63.37;100333.78;10303540;28;20133;-68
2023/01/07 09:50:49;;;;;;;1.13;0.30;;;;;;;12.84;63.46;100337.44;10300689;28;20080;-68
2023/01/07 09:55:53;;;;;;;2.47;0.40;;;;;;;12.92;62.76;100325.69;10305415;28;20042;-68
2023/01/07 10:01:23;;;;;;;0.63;0.10;;;;;;;12.93;62.30;100324.66;10314631;28;20532;-68
2023/01/07 10:06:30;;;;;;;1.35;0.28;;;;;;;12.94;62.13;100318.25;10308923;28;20049;-68
2023/01/07 10:11:59;;;;;;;3.38;0.40;;;;;;;13.04;62.06;100316.03;10306559;28;20050;-68
2023/01/07 10:17:03;;;;;;;1.65;0.47;;;;;;;13.06;61.76;100311.28;10306918;28;20073;-68
2023/01/07 10:22:28;;;;;;;1.58;0.30;;;;;;;13.20;61.27;100298.75;10299070;28;20129;-69
2023/01/07 10:27:36;;;;;;;1.25;0.50;;;;;;;13.29;61.10;100295.75;10299189;28;20203;-69
2023/01/07 10:32:37;;;;;;;1.13;0.38;;;;;;;13.42;60.80;100289.59;10298724;28;20078;-69
2023/01/07 10:37:42;;;;;;;0.43;0.30;;;;;;;13.58;60.75;100277.66;10300935;28;20055;-68
2023/01/07 10:42:56;;;;;;;1.15;0.30;;;;;;;13.77;60.25;100272.63;10281544;28;20074;-66
2023/01/07 10:48:03;;;;;;;1.00;0.40;;;;;;;13.86;60.32;100261.44;10296050;28;20130;-68
2023/01/07 10:53:23;;;;;;;1.85;0.35;;;;;;;13.95;60.25;100247.75;10300837;28;20050;-68
2023/01/07 10:58:30;;;;;;;2.17;0.50;;;;;;;14.02;59.99;100238.66;10279807;28;20085;-68
2023/01/07 11:03:38;;;;;;;0.90;0.30;;;;;;;14.14;59.41;100219.13;10300471;28;20450;-68
2023/01/07 11:08:41;;;;;;;0.43;0.30;;;;;;;14.11;59.25;100220.38;10297896;28;20069;-68
2023/01/07 11:13:57;;;;;;;0.98;0.40;;;;;;;14.08;59.27;100215.41;10297343;28;20055;-69
2023/01/07 11:19:04;;;;;;;2.90;0.40;;;;;;;14.19;59.15;100209.38;10298712;28;20046;-68
2023/01/07 11:24:35;;;;;;;1.00;0.40;;;;;;;14.17;59.30;100202.53;10299950;28;20044;-69
2023/01/07 11:29:42;;;;;;;0.95;0.45;;;;;;;14.39;58.53;100179.69;10313265;28;20054;-68
2023/01/07 11:35:20;;;;;;;0.88;0.50;;;;;;;14.46;58.47;100171.59;10304982;28;20078;-69
2023/01/07 11:40:31;;;;;;;1.70;0.60;;;;;;;14.55;58.08;100159.53;10299629;28;20133;-66
2023/01/07 11:45:36;;;;;;;0.73;0.40;;;;;;;14.58;58.21;100142.09;10305538;28;20149;-68
2023/01/07 11:50:40;;;;;;;0.40;0.30;;;;;;;14.56;57.77;100128.78;10297980;28;20050;-68
2023/01/07 11:56:09;;;;;;;2.33;0.40;;;;;;;14.54;57.57;100124.59;10300847;28;20167;-68
2023/01/07 12:01:14;;;;;;;0.68;0.30;;;;;;;14.43;56.70;100117.91;10299396;28;20109;-69
2023/01/07 12:06:19;;;;;;;0.40;0.10;;;;;;;14.42;56.19;100103.56;10303140;28;20062;-69
2023/01/07 12:11:28;;;;;;;2.83;0.20;;;;;;;14.30;56.03;100099.81;10301651;28;20110;-70
2023/01/07 12:16:29;;;;;;;0.55;0.13;;;;;;;14.15;55.72;100101.88;10307629;28;20117;-69
2023/01/07 12:22:00;;;;;;;0.08;0.00;;;;;;;14.07;55.56;100092.09;10332306;28;20051;-66
2023/01/07 12:27:36;;;;;;;0.65;0.10;;;;;;;14.00;55.62;100080.41;10368780;23;20058;-87
2023/01/07 12:32:52;;;;;;;2.47;0.17;;;;;;;13.99;55.35;100070.66;10290892;28;20138;-88
2023/01/07 12:38:04;;;;;;;0.20;0.17;;;;;;;13.84;55.39;100065.41;10290196;28;20050;-89
2023/01/07 12:43:35;;;;;;;0.63;0.20;;;;;;;13.74;55.61;100052.31;10229075;28;20065;-88
2023/01/07 12:48:42;;;;;;;1.05;0.20;;;;;;;13.68;55.67;100048.56;10260942;28;20122;-88
2023/01/07 12:53:50;;;;;;;0.50;0.28;;;;;;;13.77;55.37;100043.81;10247640;28;20071;-88
2023/01/07 12:59:25;;;;;;;3.95;0.40;;;;;;;13.62;55.44;100035.84;10260954;28;20082;-88
2023/01/07 13:05:10;;;;;;;0.77;0.38;;;;;;;13.50;55.70;100032.09;10257572;28;20062;-88
2023/01/07 13:10:48;;;;;;;0.93;0.30;;;;;;;13.43;55.97;100020.44;10246600;28;20055;-92
2023/01/07 13:15:51;;;;;;;0.85;0.38;;;;;;;13.46;55.63;100020.03;10410722;23;20041;-70
2023/01/07 13:26:17;;;;;;;0.52;0.20;;;;;;;13.35;55.89;99999.88;10477656;23;20056;-66
2023/01/07 13:31:58;;;;;;;0.60;0.30;;;;;;;13.41;55.72;99988.25;10493231;23;20042;-90
2023/01/07 13:37:24;;;;;;;0.45;0.30;;;;;;;13.43;55.78;99985.34;10364395;28;20292;-91
2023/01/07 13:42:48;;;;;;;1.73;0.35;;;;;;;13.39;55.92;99979.53;10301927;28;20050;-90
2023/01/07 13:48:02;;;;;;;0.50;0.30;;;;;;;13.39;55.70;99984.06;10319936;28;20534;-90
2023/01/07 13:53:25;;;;;;;4.00;0.40;;;;;;;13.40;55.35;99981.16;10315833;28;20584;-91
2023/01/07 13:58:45;;;;;;;0.63;0.30;;;;;;;13.43;55.70;99979.94;10286447;28;20066;-90
2023/01/07 14:03:52;;;;;;;1.05;0.30;;;;;;;13.34;55.75;99973.88;10302455;28;20055;-90
2023/01/07 14:09:12;;;;;;;0.50;0.35;;;;;;;13.39;55.85;99975.97;10312663;28;20074;-90
2023/01/07 14:14:53;;;;;;;0.70;0.35;;;;;;;13.35;56.06;99972.00;10314554;28;20074;-91
2023/01/07 14:20:22;;;;;;;1.00;0.40;;;;;;;13.38;56.07;99967.03;10310973;28;20058;-90
2023/01/07 14:25:52;;;;;;;1.15;0.40;;;;;;;13.41;55.80;99963.13;10313640;28;20050;-90
2023/01/07 14:31:01;;;;;;;0.98;0.38;;;;;;;13.41;55.82;99955.03;10346500;28;20057;-89
2023/01/07 14:36:10;;;;;;;0.55;0.35;;;;;;;13.36;56.10;99960.19;10309166;28;20070;-90
2023/01/07 14:41:17;;;;;;;1.00;0.40;;;;;;;13.43;55.46;99948.38;10289897;28;20109;-90
2023/01/07 14:46:43;;;;;;;0.77;0.40;;;;;;;13.38;55.58;99944.63;10328224;28;20061;-90
2023/01/07 14:52:03;;;;;;;3.88;0.50;;;;;;;13.37;55.86;99938.41;10314359;28;20054;-89
2023/01/07 14:57:23;;;;;;;1.38;0.65;;;;;;;13.35;55.85;99932.38;10308474;28;20501;-89
2023/01/07 15:02:56;;;;;;;2.47;0.60;;;;;;;13.29;56.12;99930.47;10293140;28;20050;-90
2023/01/07 15:18:48;;;;;;;1.25;0.60;;;;;;;13.30;55.87;99924.03;10328027;28;20054;-89
2023/01/07 15:24:03;;;;;;;1.80;0.30;;;;;;;13.33;55.92;99920.09;10297737;28;20054;-89
2023/01/07 15:29:17;;;;;;;1.50;0.85;;;;;;;13.37;55.64;99916.81;10310045;28;20065;-90
2023/01/07 15:34:19;;;;;;;3.40;1.67;;;;;;;13.38;55.31;99925.72;10309490;28;20097;-90
2023/01/07 15:44:38;;;;;;;0.82;0.50;;;;;;;13.29;55.33;99917.81;10303420;28;20049;-68
2023/01/07 15:49:41;;;;;;;2.40;0.60;;;;;;;13.24;55.85;99920.25;10285478;28;20038;-67
2023/01/07 15:54:42;;;;;;;0.65;0.40;;;;;;;13.27;55.93;99925.25;10311178;28;20061;-66
2023/01/07 15:59:50;;;;;;;3.13;0.60;;;;;;;13.22;56.03;99919.63;10298375;28;20054;-68
2023/01/07 16:04:55;;;;;;;1.10;0.60;;;;;;;13.21;55.62;99915.28;10314678;28;20054;-69
2023/01/07 16:09:58;;;;;;;1.60;0.82;;;;;;;13.29;55.50;99900.78;10313810;28;20071;-66
2023/01/07 16:15:01;;;;;;;2.25;0.95;;;;;;;13.27;56.02;99905.53;10318506;28;20054;-62
2023/01/07 16:20:19;;;;;;;3.03;1.70;;;;;;;13.28;55.83;99908.00;10322105;28;20051;-64
2023/01/07 16:25:30;;;;;;;2.63;1.27;;;;;;;13.31;55.82;99908.66;10302007;28;20070;-64
2023/01/07 16:30:36;;;;;;;1.85;0.77;;;;;;;13.26;56.12;99895.78;10322677;28;20061;-64
2023/01/07 16:35:38;;;;;;;1.30;0.77;;;;;;;13.25;56.25;99896.78;10325243;28;20486;-62
2023/01/07 16:40:40;;;;;;;1.60;0.85;;;;;;;13.26;56.26;99891.19;10328819;28;20079;-61
2023/01/07 16:45:42;;;;;;;1.63;0.63;;;;;;;13.23;56.20;99878.13;10325794;28;20080;-62
2023/01/07 16:50:43;;;;;;;2.38;0.70;;;;;;;13.29;56.22;99879.16;10322254;28;20077;-64
2023/01/07 16:55:52;;;;;;;1.17;0.80;;;;;;;13.24;56.34;99874.38;10326503;28;20046;-64
2023/01/07 17:00:57;;;;;;;2.55;0.75;;;;;;;13.20;56.47;99873.13;10320051;28;20070;-64
2023/01/07 17:06:06;;;;;;;2.17;0.85;;;;;;;13.16;56.39;99874.56;10321471;28;20451;-65
2023/01/07 17:11:21;;;;;;;2.22;1.10;;;;;;;13.22;56.05;99875.63;10315963;28;20122;-65
2023/01/07 17:16:27;;;;;;;1.75;0.80;;;;;;;13.21;56.17;99857.75;10315594;28;20050;-63
2023/01/07 17:21:40;;;;;;;2.45;1.20;;;;;;;13.14;56.70;99852.34;10318457;28;20050;-64
2023/01/07 17:26:42;;;;;;;4.20;1.85;;;;;;;13.13;56.34;99850.72;10321803;28;20051;-64
2023/01/07 17:31:45;;;;;;;2.58;1.13;;;;;;;13.12;56.63;99851.72;10320503;28;20046;-65
2023/01/07 17:36:46;;;;;;;2.22;1.65;;;;;;;13.00;57.08;99856.06;10320194;28;20055;-63
2023/01/07 17:47:09;;;;;;;4.70;1.83;;;;;;;12.72;57.18;99859.72;10320000;28;20054;-63
2023/01/07 17:52:11;;;;;;;3.70;1.20;;;;;;;12.50;58.06;99870.63;10313850;28;20038;-65
2023/01/07 17:57:12;;;;;;;2.15;1.20;;;;;;;12.34;58.15;99862.03;10318162;28;20497;-64
2023/01/07 18:02:16;;;;;;;2.53;1.20;;;;;;;12.19;58.54;99857.63;10328311;28;20042;-65
2023/01/07 18:07:18;;;;;;;1.30;0.77;;;;;;;12.03;58.92;99864.16;10326134;28;20050;-64
2023/01/07 18:12:33;;;;;;;1.75;1.00;;;;;;;11.89;59.13;99844.38;10305322;28;20046;-66
2023/01/07 18:17:34;;;;;;;3.35;1.50;;;;;;;11.78;59.10;99844.88;10323672;28;20047;-63
2023/01/07 18:22:36;;;;;;;3.53;1.30;;;;;;;11.60;59.55;99858.84;10325027;28;20047;-63
2023/01/07 18:27:37;;;;;;;3.85;2.05;;;;;;;11.46;59.77;99862.44;10306305;28;20055;-65
2023/01/07 18:32:38;;;;;;;5.50;3.38;;;;;;;11.37;59.96;99858.22;10323749;28;20065;-66
2023/01/07 18:37:40;;;;;;;6.82;2.53;;;;;;;11.23;59.88;99858.09;10318973;28;20046;-65
2023/01/07 18:42:41;;;;;;;4.15;2.67;;;;;;;11.14;60.46;99867.34;10314180;28;20083;-63
2023/01/07 18:47:44;;;;;;;6.95;2.85;;;;;;;11.01;60.74;99859.13;10324564;28;20047;-64
2023/01/07 18:52:46;;;;;;;4.82;2.67;;;;;;;10.91;60.91;99844.13;10321683;28;20054;-65
2023/01/07 18:57:47;;;;;;;4.47;3.10;;;;;;;10.84;61.14;99831.63;10326232;28;20277;-67
2023/01/07 19:02:48;;;;;;;4.72;2.90;;;;;;;10.80;61.38;99823.13;10327271;28;20058;-67
2023/01/07 19:07:50;;;;;;;4.97;2.80;;;;;;;10.73;61.66;99835.66;10312575;28;20042;-62
2023/01/07 19:12:51;;;;;;;4.43;3.63;;;;;;;10.73;61.36;99837.53;10315445;28;20146;-65
2023/01/07 19:17:53;;;;;;;6.15;3.75;;;;;;;10.69;61.45;99831.69;10314350;28;20061;-63
2023/01/07 19:22:58;;;;;;;5.25;3.67;;;;;;;10.64;61.92;99828.72;10296940;28;20505;-64
2023/01/07 19:28:00;;;;;;;7.55;4.57;;;;;;;10.62;61.95;99830.75;10286290;28;20193;-65
2023/01/07 19:33:02;;;;;;;11.48;6.07;;;;;;;10.54;62.12;99820.94;10298591;28;20081;-65
2023/01/07 19:38:03;;;;;;;16.52;5.47;;;;;;;10.48;62.33;99811.78;10318749;28;20054;-64
2023/01/07 19:43:05;;;;;;;8.50;4.32;;;;;;;10.43;62.51;99803.47;10312265;28;20052;-63
2023/01/07 19:48:06;;;;;;;9.60;4.72;;;;;;;10.42;62.62;99807.19;10305836;28;20058;-64
2023/01/07 19:53:10;;;;;;;7.82;4.90;;;;;;;10.30;63.08;99814.88;10288481;28;20059;-67
2023/01/07 19:58:11;;;;;;;9.13;5.30;;;;;;;10.29;62.99;99809.69;10306628;28;20054;-64
2023/01/07 20:03:13;;;;;;;9.10;5.43;;;;;;;10.24;63.19;99799.47;10310658;28;20129;-71
2023/01/07 20:08:15;;;;;;;9.93;6.32;;;;;;;10.24;63.29;99796.81;10315811;28;20070;-68
2023/01/07 20:13:16;;;;;;;12.05;6.82;;;;;;;10.17;63.56;99789.66;10301777;28;20046;-69
2023/01/07 20:18:18;;;;;;;8.93;6.22;;;;;;;10.20;63.46;99784.75;10270930;28;20039;-70
2023/01/07 20:23:19;;;;;;;9.57;5.88;;;;;;;10.22;63.81;99803.38;10273847;28;20047;-70
2023/01/07 20:28:21;;;;;;;11.52;6.60;;;;;;;10.01;64.17;99801.44;10272129;28;20047;-70
2023/01/07 20:33:22;;;;;;;9.15;5.78;;;;;;;9.90;64.08;99789.34;10291221;28;20054;-70
2023/01/07 20:38:24;;;;;;;10.38;7.53;;;;;;;9.87;64.28;99787.88;10314250;28;20058;-69
2023/01/07 20:43:25;;;;;;;10.38;5.93;;;;;;;9.79;64.42;99785.25;10302492;28;20046;-71
2023/01/07 20:48:27;;;;;;;7.00;4.75;;;;;;;9.64;65.01;99776.38;10267070;28;20086;-71
2023/01/07 20:53:29;;;;;;;9.50;5.53;;;;;;;9.64;64.50;99785.25;10281108;28;20493;-71
2023/01/07 20:58:33;;;;;;;12.65;7.47;;;;;;;9.57;65.21;99773.59;10306418;28;20057;-71
2023/01/07 21:03:36;;;;;;;17.10;11.07;;;;;;;9.53;64.94;99772.28;10278709;28;20567;-66
2023/01/07 21:08:38;;;;;;;16.00;8.68;;;;;;;9.53;64.91;99761.56;10295706;28;20520;-71
2023/01/07 21:13:40;;;;;;;15.68;8.27;;;;;;;9.50;64.97;99751.22;10288135;28;20039;-70
2023/01/07 21:18:41;;;;;;;9.85;7.03;;;;;;;9.41;65.22;99749.63;10294158;28;20082;-68
2023/01/07 21:23:45;;;;;;;18.30;9.85;;;;;;;9.31;65.33;99758.75;10297272;28;20091;-70
2023/01/07 21:28:47;;;;;;;13.85;8.50;;;;;;;9.41;65.82;99754.97;10303994;28;20061;-68
2023/01/07 21:33:52;;;;;;;17.90;10.85;;;;;;;9.47;65.27;99751.56;10295858;28;20102;-69
2023/01/07 21:38:56;;;;;;;25.67;11.95;;;;;;;9.48;65.45;99748.69;10310963;28;20046;-69
2023/01/07 21:43:58;;;;;;;19.50;9.85;;;;;;;9.57;65.45;99745.94;10276466;28;20643;-69
2023/01/07 21:49:02;;;;;;;17.77;9.77;;;;;;;9.65;65.67;99727.03;10303629;28;20701;-67
2023/01/07 21:54:03;;;;;;;19.83;12.40;;;;;;;9.69;65.50;99712.22;10296990;28;20650;-69
2023/01/07 21:59:07;;;;;;;16.75;8.82;;;;;;;9.65;65.66;99705.56;10302456;28;20106;-70
2023/01/07 22:04:08;;;;;;;11.88;7.63;;;;;;;9.59;66.18;99701.78;10315888;28;20058;-69
2023/01/07 22:09:13;;;;;;;14.63;6.85;;;;;;;9.62;65.96;99708.66;10315785;28;20050;-67
2023/01/07 22:14:17;;;;;;;12.55;7.35;;;;;;;9.55;65.96;99710.41;10307991;28;20046;-69
2023/01/07 22:19:19;;;;;;;11.50;6.55;;;;;;;9.56;66.39;99704.84;10299572;28;20058;-66
2023/01/07 22:24:20;;;;;;;11.93;6.28;;;;;;;9.63;66.51;99726.41;10301057;28;20050;-69
2023/01/07 22:29:22;;;;;;;15.30;8.45;;;;;;;9.75;65.97;99726.78;10310993;28;20062;-68
2023/01/07 22:34:23;;;;;;;20.08;10.32;;;;;;;9.80;65.90;99722.50;10313098;28;20057;-69
2023/01/07 22:39:30;;;;;;;18.42;10.95;;;;;;;9.72;66.10;99723.44;10312976;28;20051;-69
2023/01/07 22:44:41;;;;;;;15.40;10.35;;;;;;;9.73;66.12;99719.75;10275729;28;20106;-70
2023/01/07 22:49:43;;;;;;;12.30;7.75;;;;;;;9.75;66.08;99713.34;10273258;28;20105;-68
2023/01/07 22:54:44;;;;;;;13.95;8.55;;;;;;;9.78;65.79;99708.44;10263177;28;20047;-68
2023/01/07 22:59:46;;;;;;;13.45;8.38;;;;;;;9.76;66.06;99713.16;10264566;28;20524;-65
2023/01/07 23:04:47;;;;;;;13.70;6.90;;;;;;;9.64;66.37;99715.50;10290941;28;20039;-68
2023/01/07 23:09:49;;;;;;;15.38;7.13;;;;;;;9.62;66.76;99701.44;10297545;28;20061;-67
2023/01/07 23:14:52;;;;;;;15.90;7.25;;;;;;;9.55;67.13;99694.31;10282712;28;20054;-66
2023/01/07 23:19:53;;;;;;;14.55;8.15;;;;;;;9.49;67.80;99685.97;10270007;28;20059;-65
2023/01/07 23:24:54;;;;;;;12.30;8.10;;;;;;;9.50;68.22;99687.63;10281235;28;20058;-68
2023/01/07 23:29:57;;;;;;;14.52;8.43;;;;;;;9.53;68.19;99691.78;10278758;28;20054;-66
2023/01/07 23:34:58;;;;;;;16.98;9.57;;;;;;;9.55;68.49;99668.28;10266957;28;20071;-67
2023/01/07 23:40:00;;;;;;;17.63;9.18;;;;;;;9.58;68.75;99654.53;10281816;28;20058;-67
2023/01/07 23:45:05;;;;;;;18.73;9.43;;;;;;;9.59;68.77;99644.63;10221078;28;20710;-68
2023/01/07 23:50:07;;;;;;;15.55;7.65;;;;;;;9.56;69.19;99629.72;10234492;28;20700;-65
2023/01/07 23:55:09;;;;;;;10.82;7.60;;;;;;;9.59;69.31;99632.03;10245564;28;20055;-65
